Time;durP1;ratioP1;P1;durP2;ratioP2;P2;SDS_P1;SDS_P2;PMS_P1;PMS_P2;Temp;Humidity;BMP_temperature;BMP_pressure;BME280_temperature;BME280_humidity;BME280_pressure;Samples;Min_cycle;Max_cycle;Signal;HPM_P1;HPM_P2
2023/10/03 00:01:40;;;;;;;0.20;0.20;;;8.50;99.90;;;;;;5111468;28;20234;-72
2023/10/03 00:04:09;;;;;;;0.20;0.20;;;8.60;99.90;;;;;;5111795;28;20219;-72
2023/10/03 00:06:36;;;;;;;0.20;0.20;;;8.60;99.90;;;;;;5131424;27;20223;-71
2023/10/03 00:09:02;;;;;;;0.20;0.20;;;8.60;99.90;;;;;;5122537;27;20214;-72
2023/10/03 00:11:29;;;;;;;0.40;0.40;;;8.60;99.90;;;;;;5111274;28;20581;-71
2023/10/03 00:13:54;;;;;;;0.20;0.20;;;8.60;99.90;;;;;;5111265;28;20215;-72
2023/10/03 00:16:21;;;;;;;0.20;0.20;;;8.60;99.90;;;;;;5092554;28;20223;-72
2023/10/03 00:18:47;;;;;;;0.30;0.30;;;8.60;99.90;;;;;;5092890;28;20215;-72
2023/10/03 00:21:13;;;;;;;0.20;0.20;;;8.50;99.90;;;;;;5111152;28;20573;-72
2023/10/03 00:23:38;;;;;;;0.20;0.20;;;8.50;99.90;;;;;;5111031;28;20199;-72
2023/10/03 00:26:07;;;;;;;0.20;0.20;;;8.50;99.90;;;;;;5111224;28;20566;-72
2023/10/03 00:28:33;;;;;;;2.30;1.25;;;8.40;99.90;;;;;;5110913;28;20619;-72
2023/10/03 00:31:00;;;;;;;0.20;0.20;;;8.40;99.90;;;;;;5110831;28;20229;-72
2023/10/03 00:33:26;;;;;;;0.20;0.20;;;8.40;99.90;;;;;;5110592;28;20184;-74
2023/10/03 00:35:55;;;;;;;0.30;0.30;;;8.50;99.90;;;;;;5098874;27;20194;-73
2023/10/03 00:38:22;;;;;;;0.22;0.22;;;8.50;99.90;;;;;;5112917;27;20289;-74
2023/10/03 00:40:49;;;;;;;0.20;0.20;;;8.50;99.90;;;;;;5112593;27;20575;-74
2023/10/03 00:43:15;;;;;;;0.30;0.30;;;8.50;99.90;;;;;;5130269;27;20742;-73
2023/10/03 00:45:42;;;;;;;0.30;0.30;;;8.50;99.90;;;;;;5131048;27;20190;-75
2023/10/03 00:48:08;;;;;;;0.25;0.25;;;8.50;99.90;;;;;;5112430;27;20207;-74
2023/10/03 00:50:35;;;;;;;0.20;0.20;;;8.60;99.90;;;;;;5112586;27;20207;-74
2023/10/03 00:53:06;;;;;;;0.20;0.20;;;8.60;99.90;;;;;;5130011;27;20305;-74
2023/10/03 00:55:33;;;;;;;0.30;0.30;;;8.60;99.90;;;;;;5110326;28;20190;-74
2023/10/03 00:58:07;;;;;;;0.20;0.20;;;8.60;99.90;;;;;;5110587;28;20599;-73
2023/10/03 01:00:42;;;;;;;0.30;0.30;;;8.60;99.90;;;;;;5110364;28;20597;-73
2023/10/03 01:03:30;;;;;;;0.20;0.20;;;8.70;99.90;;;;;;5110621;28;20697;-73
2023/10/03 01:06:09;;;;;;;0.20;0.20;;;8.80;99.90;;;;;;5091702;28;20205;-73
2023/10/03 01:08:42;;;;;;;0.20;0.20;;;8.80;99.90;;;;;;5109786;28;20738;-73
2023/10/03 01:11:15;;;;;;;0.30;0.30;;;8.80;99.90;;;;;;5109787;28;20618;-73
2023/10/03 01:13:56;;;;;;;0.20;0.20;;;8.90;99.90;;;;;;5109880;28;20215;-73
2023/10/03 01:16:32;;;;;;;0.30;0.30;;;9.00;99.90;;;;;;5110075;28;20194;-72
2023/10/03 01:18:59;;;;;;;0.30;0.30;;;9.00;99.90;;;;;;5109753;28;20276;-73
2023/10/03 01:21:25;;;;;;;0.20;0.20;;;9.00;99.90;;;;;;5091697;28;20628;-73
2023/10/03 01:23:51;;;;;;;0.20;0.20;;;9.00;99.90;;;;;;5110076;28;20206;-73
2023/10/03 01:26:18;;;;;;;0.30;0.30;;;9.00;99.90;;;;;;5109925;28;20199;-73
2023/10/03 01:28:44;;;;;;;0.30;0.30;;;9.00;99.90;;;;;;5109696;28;20787;-73
2023/10/03 01:31:10;;;;;;;0.10;0.10;;;9.00;99.90;;;;;;5109347;28;20191;-73
2023/10/03 01:33:36;;;;;;;0.20;0.20;;;9.00;99.90;;;;;;5109803;28;20248;-73
2023/10/03 01:36:03;;;;;;;0.20;0.20;;;9.00;99.90;;;;;;5109938;28;20266;-74
2023/10/03 01:38:29;;;;;;;0.35;0.35;;;9.00;99.90;;;;;;5109996;28;20591;-74
2023/10/03 01:41:00;;;;;;;0.20;0.20;;;9.00;99.90;;;;;;5091777;28;20199;-74
2023/10/03 01:43:26;;;;;;;0.20;0.20;;;9.00;99.90;;;;;;5108726;28;20196;-73
2023/10/03 01:45:55;;;;;;;0.30;0.30;;;9.00;99.90;;;;;;5109674;28;20192;-74
2023/10/03 01:48:21;;;;;;;0.20;0.20;;;9.00;99.90;;;;;;5109421;28;20686;-74
2023/10/03 01:50:50;;;;;;;0.22;0.22;;;9.00;99.90;;;;;;5109451;28;20195;-74
2023/10/03 01:53:16;;;;;;;0.30;0.30;;;9.00;99.90;;;;;;5123415;27;20230;-73
2023/10/03 01:55:42;;;;;;;3.05;1.10;;;9.00;99.90;;;;;;5130019;27;20187;-73
2023/10/03 01:58:08;;;;;;;0.40;0.40;;;9.00;99.90;;;;;;5119689;27;20297;-74
2023/10/03 02:00:36;;;;;;;0.20;0.20;;;9.00;99.90;;;;;;5129853;27;20203;-73
2023/10/03 02:03:05;;;;;;;0.40;0.40;;;9.00;99.90;;;;;;5111555;27;20286;-73
2023/10/03 02:05:36;;;;;;;0.75;0.75;;;9.00;99.90;;;;;;5129761;27;20208;-73
2023/10/03 02:08:16;;;;;;;0.25;0.25;;;9.00;99.90;;;;;;5128984;27;20210;-73
2023/10/03 02:10:44;;;;;;;0.30;0.30;;;9.00;99.90;;;;;;5109392;28;20198;-73
2023/10/03 02:13:17;;;;;;;0.30;0.30;;;9.00;99.90;;;;;;5090755;28;20191;-73
2023/10/03 02:15:47;;;;;;;0.20;0.20;;;9.00;99.90;;;;;;5109589;28;20191;-73
2023/10/03 02:18:13;;;;;;;0.20;0.20;;;9.00;99.90;;;;;;5109352;28;20191;-73
2023/10/03 02:20:47;;;;;;;0.50;0.50;;;9.00;99.90;;;;;;5109132;28;20670;-73
2023/10/03 02:23:19;;;;;;;0.30;0.30;;;9.00;99.90;;;;;;5109545;28;20209;-73
2023/10/03 02:25:46;;;;;;;0.20;0.20;;;9.00;99.90;;;;;;5091004;28;20195;-74
2023/10/03 02:28:14;;;;;;;0.20;0.20;;;9.00;99.90;;;;;;5114347;28;20305;-74
2023/10/03 02:30:40;;;;;;;0.30;0.30;;;9.00;99.90;;;;;;5129525;28;20183;-74
2023/10/03 02:33:15;;;;;;;0.20;0.20;;;9.10;99.90;;;;;;5129594;28;20310;-74
2023/10/03 02:35:42;;;;;;;0.28;0.28;;;9.10;99.90;;;;;;5129320;28;20178;-73
2023/10/03 02:38:11;;;;;;;0.30;0.30;;;9.10;99.90;;;;;;5129439;28;20641;-73
2023/10/03 02:40:39;;;;;;;0.20;0.20;;;9.10;99.90;;;;;;5129472;28;20673;-74
2023/10/03 02:43:05;;;;;;;0.20;0.20;;;9.10;99.90;;;;;;5111129;28;20203;-76
2023/10/03 02:45:31;;;;;;;2.92;1.15;;;9.00;99.90;;;;;;5129642;28;20537;-75
2023/10/03 02:47:58;;;;;;;0.20;0.20;;;9.00;99.90;;;;;;5129411;28;20214;-74
2023/10/03 02:50:26;;;;;;;0.20;0.20;;;9.00;99.90;;;;;;5129460;28;20277;-74
2023/10/03 02:52:53;;;;;;;0.30;0.30;;;9.00;99.90;;;;;;5129689;28;20231;-73
2023/10/03 02:55:18;;;;;;;0.25;0.25;;;9.00;99.90;;;;;;5130500;27;20199;-73
2023/10/03 02:57:45;;;;;;;0.20;0.20;;;8.90;99.90;;;;;;5133732;27;20195;-73
2023/10/03 03:00:13;;;;;;;0.20;0.20;;;8.90;99.90;;;;;;5132440;27;20191;-72
2023/10/03 03:02:46;;;;;;;0.20;0.20;;;8.90;99.90;;;;;;5125059;27;20209;-72
2023/10/03 03:05:15;;;;;;;0.30;0.30;;;8.90;99.90;;;;;;5132004;27;20231;-73
2023/10/03 03:07:48;;;;;;;0.20;0.20;;;8.80;99.90;;;;;;5132970;27;20251;-72
2023/10/03 03:10:16;;;;;;;0.20;0.20;;;8.80;99.90;;;;;;5132932;27;20191;-71
2023/10/03 03:12:43;;;;;;;0.20;0.20;;;8.70;99.90;;;;;;5133032;27;20195;-71
2023/10/03 03:15:22;;;;;;;0.20;0.20;;;8.70;99.90;;;;;;5133256;27;20215;-72
2023/10/03 03:17:48;;;;;;;0.32;0.32;;;8.60;99.90;;;;;;5133497;27;20579;-72
2023/10/03 03:20:33;;;;;;;0.17;0.17;;;8.60;99.90;;;;;;5133081;27;20534;-72
2023/10/03 03:23:00;;;;;;;0.73;0.73;;;8.60;99.90;;;;;;5133016;27;20218;-73
2023/10/03 03:25:36;;;;;;;0.28;0.28;;;8.50;99.90;;;;;;5118967;27;20199;-73
2023/10/03 03:28:13;;;;;;;0.20;0.20;;;8.60;99.90;;;;;;5112147;28;20238;-73
2023/10/03 03:30:56;;;;;;;0.30;0.30;;;8.50;99.90;;;;;;5112239;28;20725;-73
2023/10/03 03:33:26;;;;;;;0.20;0.20;;;8.50;99.90;;;;;;5093589;28;20195;-73
2023/10/03 03:35:52;;;;;;;0.20;0.20;;;8.50;99.90;;;;;;5112397;28;20187;-73
2023/10/03 03:38:18;;;;;;;0.20;0.20;;;8.50;99.90;;;;;;5112279;28;20568;-73
2023/10/03 03:40:53;;;;;;;0.20;0.20;;;8.60;99.90;;;;;;5112613;28;20658;-73
2023/10/03 03:43:21;;;;;;;0.20;0.20;;;8.60;99.90;;;;;;5125463;27;20305;-73
2023/10/03 03:45:48;;;;;;;0.20;0.20;;;8.60;99.90;;;;;;5113977;27;20254;-73
2023/10/03 03:48:19;;;;;;;0.20;0.20;;;8.60;99.90;;;;;;5132546;27;20543;-73
2023/10/03 03:50:45;;;;;;;0.20;0.20;;;8.60;99.90;;;;;;5132417;27;20731;-72
2023/10/03 03:53:10;;;;;;;0.20;0.20;;;8.70;99.90;;;;;;5121573;27;20262;-72
2023/10/03 03:55:37;;;;;;;0.20;0.20;;;8.80;99.90;;;;;;5111741;28;20184;-72
2023/10/03 03:58:12;;;;;;;0.20;0.20;;;8.80;99.90;;;;;;5093136;28;20203;-73
2023/10/03 04:00:39;;;;;;;0.22;0.22;;;8.80;99.90;;;;;;5111847;28;20191;-73
2023/10/03 04:03:09;;;;;;;0.30;0.30;;;8.90;99.90;;;;;;5093113;28;20208;-75
2023/10/03 04:05:41;;;;;;;0.20;0.20;;;8.90;99.90;;;;;;5104141;27;20344;-74
2023/10/03 04:08:07;;;;;;;0.20;0.20;;;8.90;99.90;;;;;;5112445;27;20207;-74
2023/10/03 04:10:34;;;;;;;0.20;0.20;;;8.90;99.90;;;;;;5131916;27;20730;-74
2023/10/03 04:13:06;;;;;;;0.20;0.20;;;8.90;99.90;;;;;;5131905;27;20218;-74
2023/10/03 04:15:32;;;;;;;0.20;0.20;;;8.80;99.90;;;;;;5113243;27;20725;-74
2023/10/03 04:18:01;;;;;;;0.20;0.20;;;8.80;99.90;;;;;;5132027;27;20226;-74
2023/10/03 04:20:31;;;;;;;0.17;0.17;;;8.80;99.90;;;;;;5131618;27;20207;-74
2023/10/03 04:22:59;;;;;;;0.30;0.30;;;8.80;99.90;;;;;;5132062;27;20221;-74
2023/10/03 04:25:25;;;;;;;0.25;0.25;;;8.80;99.90;;;;;;5117888;27;20734;-74
2023/10/03 04:27:54;;;;;;;0.30;0.30;;;8.80;99.90;;;;;;5111154;28;20223;-74
2023/10/03 04:30:23;;;;;;;0.20;0.20;;;8.80;99.90;;;;;;5092632;28;20187;-74
2023/10/03 04:32:49;;;;;;;0.20;0.20;;;8.80;99.90;;;;;;5111145;28;20271;-74
2023/10/03 04:35:17;;;;;;;0.20;0.20;;;8.80;99.90;;;;;;5110909;28;20184;-74
2023/10/03 04:37:44;;;;;;;0.28;0.28;;;8.80;99.90;;;;;;5111025;28;20191;-73
2023/10/03 04:40:28;;;;;;;0.20;0.20;;;8.90;99.90;;;;;;5129629;27;20198;-74
2023/10/03 04:42:55;;;;;;;0.20;0.20;;;8.90;99.90;;;;;;5131463;27;20201;-74
2023/10/03 04:45:22;;;;;;;0.20;0.20;;;8.90;99.90;;;;;;5131224;27;20193;-75
2023/10/03 04:47:48;;;;;;;0.20;0.20;;;8.90;99.90;;;;;;5131036;27;20210;-74
2023/10/03 04:50:19;;;;;;;0.20;0.20;;;8.90;99.90;;;;;;5131377;27;20207;-74
2023/10/03 04:52:48;;;;;;;0.20;0.20;;;9.00;99.90;;;;;;5131094;27;20309;-75
2023/10/03 04:55:21;;;;;;;0.20;0.20;;;9.00;99.90;;;;;;5111643;27;20700;-74
2023/10/03 04:57:48;;;;;;;0.30;0.30;;;9.00;99.90;;;;;;5110625;28;20248;-74
2023/10/03 05:00:16;;;;;;;0.20;0.20;;;9.00;99.90;;;;;;5111004;28;20742;-74
2023/10/03 05:02:49;;;;;;;0.30;0.30;;;9.10;99.90;;;;;;5110184;28;20290;-73
2023/10/03 05:05:15;;;;;;;0.20;0.20;;;9.10;99.90;;;;;;5091987;28;20234;-73
2023/10/03 05:07:40;;;;;;;0.20;0.20;;;9.10;99.90;;;;;;5110333;28;20223;-74
2023/10/03 05:10:07;;;;;;;0.20;0.20;;;9.10;99.90;;;;;;5092055;28;20195;-74
2023/10/03 05:12:32;;;;;;;0.30;0.30;;;9.10;99.90;;;;;;5110409;28;20662;-71
2023/10/03 05:14:58;;;;;;;0.20;0.20;;;9.10;99.90;;;;;;5110291;28;20187;-73
2023/10/03 05:17:30;;;;;;;0.20;0.20;;;9.10;99.90;;;;;;5110324;28;20192;-72
2023/10/03 05:19:58;;;;;;;0.30;0.30;;;9.10;99.90;;;;;;5110450;28;20227;-73
2023/10/03 05:22:28;;;;;;;0.30;0.30;;;9.10;99.90;;;;;;5110102;28;20196;-73
2023/10/03 05:24:57;;;;;;;0.30;0.30;;;9.10;99.90;;;;;;5110228;28;20700;-74
2023/10/03 05:27:22;;;;;;;0.20;0.20;;;9.10;99.90;;;;;;5091435;28;20306;-73
2023/10/03 05:29:48;;;;;;;0.20;0.20;;;9.00;99.90;;;;;;5109881;28;20297;-74
2023/10/03 05:32:14;;;;;;;0.45;0.32;;;9.00;99.90;;;;;;5109819;28;20187;-73
2023/10/03 05:34:40;;;;;;;0.30;0.30;;;9.00;99.90;;;;;;5113704;27;20646;-73
2023/10/03 05:37:06;;;;;;;0.30;0.30;;;9.00;99.90;;;;;;5130505;27;20195;-73
2023/10/03 05:39:31;;;;;;;0.20;0.20;;;9.10;99.90;;;;;;5130135;27;20201;-73
2023/10/03 05:41:57;;;;;;;0.20;0.20;;;9.10;99.90;;;;;;5130090;27;20190;-74
2023/10/03 05:44:26;;;;;;;0.20;0.20;;;9.10;99.90;;;;;;5129923;27;20194;-73
2023/10/03 05:46:55;;;;;;;0.20;0.20;;;9.10;99.90;;;;;;5130328;27;20312;-74
2023/10/03 05:49:24;;;;;;;0.20;0.20;;;9.10;99.90;;;;;;5130162;27;20239;-73
2023/10/03 05:51:58;;;;;;;0.20;0.20;;;9.20;99.90;;;;;;5111380;27;20677;-74
2023/10/03 05:54:25;;;;;;;0.20;0.20;;;9.20;99.90;;;;;;5095380;28;20207;-73
2023/10/03 05:56:52;;;;;;;1.58;1.48;;;9.20;99.90;;;;;;5088854;28;20216;-74
2023/10/03 05:59:20;;;;;;;0.20;0.20;;;9.30;99.90;;;;;;5109425;28;20583;-73
2023/10/03 06:01:46;;;;;;;0.22;0.22;;;9.40;99.90;;;;;;5109451;28;20217;-74
2023/10/03 06:04:16;;;;;;;0.35;0.35;;;9.40;99.90;;;;;;5109486;28;20208;-73
2023/10/03 06:06:43;;;;;;;0.30;0.30;;;9.50;99.90;;;;;;5109838;28;20264;-74
2023/10/03 06:09:12;;;;;;;0.25;0.25;;;9.50;99.90;;;;;;5107843;28;20215;-73
2023/10/03 06:11:38;;;;;;;0.20;0.20;;;9.60;99.90;;;;;;5109568;28;20289;-73
2023/10/03 06:14:04;;;;;;;0.20;0.20;;;9.70;99.90;;;;;;5109642;28;20198;-74
2023/10/03 06:16:30;;;;;;;0.20;0.20;;;9.80;99.90;;;;;;5109443;28;20199;-74
2023/10/03 06:18:57;;;;;;;3.00;1.48;;;9.90;99.90;;;;;;5109598;28;20569;-74
2023/10/03 06:21:24;;;;;;;0.20;0.20;;;9.90;99.90;;;;;;5109330;28;20570;-74
2023/10/03 06:23:50;;;;;;;0.20;0.20;;;10.00;99.90;;;;;;5108865;28;20199;-74
2023/10/03 06:26:20;;;;;;;0.25;0.25;;;10.00;99.90;;;;;;5087503;28;20204;-74
2023/10/03 06:28:48;;;;;;;0.28;0.28;;;10.10;99.90;;;;;;5087319;28;20307;-73
2023/10/03 06:31:15;;;;;;;0.22;0.22;;;10.10;99.90;;;;;;5092185;28;20385;-74
2023/10/03 06:33:44;;;;;;;0.20;0.20;;;10.10;99.90;;;;;;5091672;28;20232;-74
2023/10/03 06:36:11;;;;;;;0.20;0.20;;;10.20;99.90;;;;;;5075016;28;20204;-75
2023/10/03 06:38:38;;;;;;;0.20;0.20;;;10.20;99.90;;;;;;5104260;27;20199;-74
2023/10/03 06:41:05;;;;;;;0.20;0.20;;;10.30;99.90;;;;;;5134161;27;20186;-75
2023/10/03 06:43:31;;;;;;;0.20;0.20;;;10.30;99.90;;;;;;5119978;27;20199;-73
2023/10/03 06:45:56;;;;;;;0.20;0.20;;;10.30;99.90;;;;;;5113212;28;21017;-72
2023/10/03 06:48:24;;;;;;;0.10;0.10;;;10.30;99.90;;;;;;5112824;28;20199;-72
2023/10/03 06:50:51;;;;;;;0.20;0.20;;;10.30;99.90;;;;;;5113105;28;20256;-72
2023/10/03 06:53:18;;;;;;;0.40;0.40;;;10.40;99.90;;;;;;5114601;27;20226;-72
2023/10/03 06:55:44;;;;;;;0.30;0.30;;;10.40;99.90;;;;;;5133649;27;20240;-72
2023/10/03 06:58:13;;;;;;;0.20;0.20;;;10.50;99.90;;;;;;5133630;27;20243;-73
2023/10/03 07:00:39;;;;;;;0.20;0.20;;;10.50;99.90;;;;;;5133436;27;20207;-72
2023/10/03 07:03:05;;;;;;;0.20;0.20;;;10.60;99.90;;;;;;5133502;27;20198;-72
2023/10/03 07:05:31;;;;;;;0.20;0.20;;;10.60;99.90;;;;;;5133358;27;20190;-72
2023/10/03 07:07:57;;;;;;;0.20;0.20;;;10.70;99.90;;;;;;5133643;27;20203;-72
2023/10/03 07:10:22;;;;;;;0.70;0.65;;;10.70;99.90;;;;;;5133185;27;20582;-72
2023/10/03 07:12:51;;;;;;;0.47;0.43;;;10.70;99.90;;;;;;5133233;27;20544;-72
2023/10/03 07:15:18;;;;;;;0.28;0.28;;;10.70;99.90;;;;;;5133610;27;20203;-72
2023/10/03 07:17:44;;;;;;;2.30;1.27;;;10.80;99.90;;;;;;5133163;27;20186;-73
2023/10/03 07:20:12;;;;;;;0.20;0.20;;;10.70;99.90;;;;;;5133059;27;20194;-72
2023/10/03 07:22:39;;;;;;;2.88;0.65;;;10.70;99.90;;;;;;5132833;27;20183;-73
2023/10/03 07:25:08;;;;;;;0.55;0.55;;;10.60;99.90;;;;;;5114514;27;20201;-73
2023/10/03 07:27:34;;;;;;;0.20;0.20;;;10.60;99.90;;;;;;5132688;27;20508;-73
2023/10/03 07:30:02;;;;;;;0.20;0.20;;;10.50;99.90;;;;;;5114343;27;20197;-73
2023/10/03 07:32:31;;;;;;;0.20;0.20;;;10.50;99.90;;;;;;5114122;27;20194;-72
2023/10/03 07:34:57;;;;;;;0.20;0.20;;;10.50;99.90;;;;;;5132739;27;20247;-73
2023/10/03 07:37:23;;;;;;;1.45;1.00;;;10.50;99.90;;;;;;5132549;27;20194;-73
2023/10/03 07:39:49;;;;;;;0.20;0.20;;;10.60;99.90;;;;;;5114142;27;20230;-72
2023/10/03 07:42:15;;;;;;;0.30;0.30;;;10.60;99.90;;;;;;5132445;27;20613;-73
2023/10/03 07:44:41;;;;;;;0.20;0.20;;;10.70;99.90;;;;;;5113170;27;20555;-72
2023/10/03 07:47:07;;;;;;;0.20;0.20;;;10.70;99.90;;;;;;5113934;27;20195;-72
2023/10/03 07:49:33;;;;;;;0.65;0.65;;;10.70;99.90;;;;;;5113532;27;20768;-73
2023/10/03 07:52:04;;;;;;;0.60;0.60;;;10.80;99.90;;;;;;5132328;27;20306;-72
2023/10/03 07:54:37;;;;;;;0.22;0.22;;;10.80;99.90;;;;;;5123505;27;20248;-72
2023/10/03 07:57:05;;;;;;;0.20;0.20;;;10.90;99.90;;;;;;5132403;27;20201;-73
2023/10/03 07:59:31;;;;;;;0.30;0.30;;;10.90;99.90;;;;;;5132328;27;20187;-72
2023/10/03 08:02:04;;;;;;;0.63;0.63;;;10.90;99.90;;;;;;5130768;27;20205;-73
2023/10/03 08:04:31;;;;;;;0.20;0.20;;;11.00;99.90;;;;;;5130901;27;20199;-73
2023/10/03 08:06:57;;;;;;;0.30;0.30;;;11.00;99.90;;;;;;5132250;27;20187;-72
2023/10/03 08:09:26;;;;;;;0.95;0.85;;;11.10;99.90;;;;;;5130416;27;20210;-72
2023/10/03 08:11:52;;;;;;;0.20;0.20;;;11.10;99.90;;;;;;5132113;27;20294;-72
2023/10/03 08:14:18;;;;;;;0.20;0.20;;;11.10;99.90;;;;;;5130564;27;20709;-72
2023/10/03 08:16:47;;;;;;;0.20;0.20;;;11.20;99.90;;;;;;5131654;27;20593;-72
2023/10/03 08:19:21;;;;;;;0.20;0.20;;;11.20;99.90;;;;;;5130501;27;20623;-72
2023/10/03 08:21:59;;;;;;;0.20;0.20;;;11.30;99.90;;;;;;5130580;27;20604;-73
2023/10/03 08:24:28;;;;;;;0.30;0.30;;;11.30;99.90;;;;;;5119177;27;20602;-73
2023/10/03 08:26:58;;;;;;;0.30;0.30;;;11.40;99.90;;;;;;5111386;28;20752;-73
2023/10/03 08:29:25;;;;;;;0.73;0.73;;;11.40;99.90;;;;;;5092685;28;20211;-72
2023/10/03 08:31:58;;;;;;;0.40;0.40;;;11.50;99.90;;;;;;5104469;27;20195;-72
2023/10/03 08:34:25;;;;;;;0.22;0.22;;;11.60;99.90;;;;;;5113001;27;20229;-72
2023/10/03 08:36:54;;;;;;;0.30;0.30;;;11.60;99.90;;;;;;5131709;27;20598;-73
2023/10/03 08:39:22;;;;;;;0.50;0.45;;;11.70;99.90;;;;;;5131637;27;20214;-73
2023/10/03 08:42:11;;;;;;;0.20;0.20;;;11.70;99.90;;;;;;5131228;27;20191;-72
2023/10/03 08:44:54;;;;;;;0.20;0.20;;;11.70;99.90;;;;;;5131130;27;20204;-72
2023/10/03 08:47:36;;;;;;;0.22;0.22;;;11.80;99.90;;;;;;5096383;28;20685;-73
2023/10/03 08:50:29;;;;;;;0.20;0.20;;;11.90;99.90;;;;;;5111006;28;20203;-73
2023/10/03 08:52:56;;;;;;;0.20;0.20;;;11.90;99.90;;;;;;5091925;28;20330;-72
2023/10/03 08:55:26;;;;;;;0.20;0.20;;;11.90;99.90;;;;;;5131924;27;20206;-73
2023/10/03 08:57:52;;;;;;;0.20;0.20;;;11.90;99.90;;;;;;5133596;27;20190;-73
2023/10/03 09:00:25;;;;;;;0.22;0.22;;;12.00;99.90;;;;;;5132981;27;20226;-73
2023/10/03 09:03:05;;;;;;;0.20;0.20;;;12.00;99.90;;;;;;5152096;27;20660;-73
2023/10/03 09:05:34;;;;;;;0.20;0.20;;;12.00;99.90;;;;;;5151583;27;20182;-73
2023/10/03 09:08:09;;;;;;;0.20;0.20;;;12.00;99.90;;;;;;5133166;27;20234;-73
2023/10/03 09:10:42;;;;;;;0.20;0.20;;;12.10;99.90;;;;;;5132903;27;20672;-73
2023/10/03 09:13:15;;;;;;;0.20;0.20;;;12.10;99.90;;;;;;5132845;27;20298;-73
2023/10/03 09:15:45;;;;;;;0.40;0.40;;;12.10;99.90;;;;;;5132805;27;20194;-73
2023/10/03 09:18:15;;;;;;;0.20;0.20;;;12.10;99.90;;;;;;5133025;27;20226;-73
2023/10/03 09:20:42;;;;;;;0.40;0.40;;;12.20;99.90;;;;;;5126471;27;20206;-73
2023/10/03 09:23:09;;;;;;;0.47;0.47;;;12.20;99.90;;;;;;5110207;28;20222;-74
2023/10/03 09:25:38;;;;;;;0.20;0.20;;;12.20;99.90;;;;;;5110011;28;20738;-74
2023/10/03 09:28:07;;;;;;;0.28;0.28;;;12.20;99.90;;;;;;5121591;27;20214;-74
2023/10/03 09:30:45;;;;;;;0.30;0.30;;;12.30;99.90;;;;;;5112218;27;20205;-74
2023/10/03 09:33:17;;;;;;;1.13;0.80;;;12.30;99.90;;;;;;5130722;27;20190;-74
2023/10/03 09:36:02;;;;;;;0.20;0.20;;;12.30;99.90;;;;;;5111616;27;20207;-74
2023/10/03 09:38:47;;;;;;;1.23;1.05;;;12.30;99.90;;;;;;5130330;27;20194;-74
2023/10/03 09:41:17;;;;;;;50.40;0.90;;;12.40;99.90;;;;;;5130464;27;20734;-74
2023/10/03 09:43:47;;;;;;;0.30;0.30;;;12.40;99.90;;;;;;5130141;27;20304;-74
2023/10/03 09:46:23;;;;;;;0.35;0.35;;;12.40;99.90;;;;;;5111800;27;20230;-74
2023/10/03 09:49:12;;;;;;;0.47;0.47;;;12.40;99.90;;;;;;5130352;27;20522;-74
2023/10/03 09:51:47;;;;;;;1.35;1.20;;;12.40;99.90;;;;;;5129623;27;20207;-74
2023/10/03 09:54:24;;;;;;;0.20;0.20;;;12.50;99.90;;;;;;5140601;27;20225;-74
2023/10/03 09:56:51;;;;;;;0.43;0.43;;;12.50;99.90;;;;;;5131769;27;20696;-74
2023/10/03 09:59:23;;;;;;;0.28;0.28;;;12.50;99.90;;;;;;5150403;27;20202;-74
2023/10/03 10:01:49;;;;;;;0.43;0.43;;;12.60;99.90;;;;;;5150584;27;20190;-74
2023/10/03 10:04:19;;;;;;;0.20;0.20;;;12.60;99.90;;;;;;5150462;27;20205;-74
2023/10/03 10:06:57;;;;;;;0.17;0.17;;;12.70;99.90;;;;;;5139410;27;20199;-73
2023/10/03 10:09:32;;;;;;;0.20;0.20;;;12.70;99.90;;;;;;5109213;28;20291;-74
2023/10/03 10:12:19;;;;;;;0.35;0.35;;;12.80;99.90;;;;;;5109589;28;20231;-74
2023/10/03 10:17:55;;;;;;;0.90;0.68;;;12.90;99.90;;;;;;5128013;27;20198;-73
2023/10/03 10:20:32;;;;;;;0.20;0.20;;;12.90;99.90;;;;;;5127054;28;20251;-74
2023/10/03 10:22:58;;;;;;;4.40;0.50;;;12.90;99.90;;;;;;5109295;28;20210;-74
2023/10/03 10:25:30;;;;;;;0.30;0.30;;;13.00;99.90;;;;;;5111064;28;20186;-74
2023/10/03 10:28:05;;;;;;;69.82;1.27;;;13.00;99.90;;;;;;5111372;28;20195;-74
2023/10/03 10:30:32;;;;;;;0.50;0.50;;;12.90;99.90;;;;;;5129476;28;20178;-74
2023/10/03 10:33:16;;;;;;;0.20;0.20;;;12.80;99.90;;;;;;5129625;28;20194;-73
2023/10/03 10:36:03;;;;;;;0.20;0.20;;;12.70;99.90;;;;;;5129437;28;20232;-73
2023/10/03 10:38:31;;;;;;;0.30;0.30;;;12.60;99.90;;;;;;5110896;28;20226;-73
2023/10/03 10:41:22;;;;;;;0.20;0.20;;;12.60;99.90;;;;;;5129719;28;20187;-73
2023/10/03 10:44:16;;;;;;;0.50;0.50;;;12.60;99.90;;;;;;5129404;28;20226;-73
2023/10/03 10:46:47;;;;;;;0.20;0.20;;;12.60;99.90;;;;;;5110802;28;20198;-73
2023/10/03 10:49:31;;;;;;;0.20;0.20;;;12.60;99.90;;;;;;5129411;28;20214;-73
2023/10/03 10:52:06;;;;;;;0.98;0.65;;;12.60;99.90;;;;;;5129500;28;20201;-73
2023/10/03 10:54:33;;;;;;;3.03;1.00;;;12.60;99.90;;;;;;5142693;27;20190;-73
2023/10/03 10:57:03;;;;;;;1.10;1.00;;;12.60;99.90;;;;;;5150239;27;20657;-74
2023/10/03 10:59:31;;;;;;;0.50;0.47;;;12.70;99.90;;;;;;5150030;27;20201;-73
2023/10/03 11:01:58;;;;;;;0.20;0.20;;;12.70;99.90;;;;;;5149825;27;20202;-73
2023/10/03 11:04:25;;;;;;;0.20;0.20;;;12.80;99.90;;;;;;5131064;27;20277;-73
2023/10/03 11:06:52;;;;;;;0.20;0.20;;;12.80;99.90;;;;;;5149875;27;20305;-73
2023/10/03 11:09:22;;;;;;;0.30;0.30;;;12.90;99.90;;;;;;5149884;27;20613;-73
2023/10/03 11:11:51;;;;;;;0.20;0.20;;;13.00;99.90;;;;;;5148600;27;20193;-73
2023/10/03 11:14:29;;;;;;;0.30;0.30;;;13.10;99.90;;;;;;5126184;28;20814;-72
2023/10/03 11:16:56;;;;;;;0.20;0.20;;;13.10;99.90;;;;;;5131382;27;20190;-72
2023/10/03 11:19:22;;;;;;;0.30;0.30;;;13.10;99.90;;;;;;5114127;27;20199;-72
2023/10/03 11:21:48;;;;;;;0.52;0.52;;;13.20;99.90;;;;;;5132880;27;20202;-73
2023/10/03 11:24:20;;;;;;;0.30;0.30;;;13.20;99.90;;;;;;5132884;27;20198;-73
2023/10/03 11:26:58;;;;;;;0.70;0.70;;;13.20;99.90;;;;;;5114286;27;20206;-73
2023/10/03 11:29:47;;;;;;;0.50;0.50;;;13.20;99.90;;;;;;5132715;27;20646;-73
2023/10/03 11:32:22;;;;;;;0.47;0.47;;;13.10;99.90;;;;;;5114159;27;20678;-72
2023/10/03 11:34:51;;;;;;;1.75;0.75;;;13.20;99.90;;;;;;5132677;27;20274;-72
2023/10/03 11:37:34;;;;;;;0.50;0.50;;;13.20;99.90;;;;;;5132516;27;20278;-73
2023/10/03 11:40:18;;;;;;;0.57;0.57;;;13.30;99.90;;;;;;5132428;27;20642;-73
2023/10/03 11:42:52;;;;;;;0.50;0.50;;;13.20;99.90;;;;;;5132567;27;20569;-73
2023/10/03 11:45:19;;;;;;;0.40;0.40;;;13.50;99.90;;;;;;5113042;27;20199;-73
2023/10/03 11:48:00;;;;;;;0.40;0.40;;;13.80;99.90;;;;;;5132631;27;20252;-74
2023/10/03 11:50:26;;;;;;;0.40;0.40;;;14.50;99.90;;;;;;5132321;27;20187;-72
2023/10/03 11:52:59;;;;;;;0.40;0.40;;;15.20;99.90;;;;;;5121874;27;20708;-73
2023/10/03 11:55:32;;;;;;;0.60;0.60;;;15.80;99.90;;;;;;5073022;28;20625;-70
2023/10/03 11:58:02;;;;;;;0.82;0.82;;;16.10;99.90;;;;;;5091370;28;20569;-72
2023/10/03 12:00:28;;;;;;;0.40;0.40;;;16.20;99.90;;;;;;5090961;28;20671;-72
2023/10/03 12:02:54;;;;;;;0.30;0.30;;;16.60;99.90;;;;;;5091442;28;20189;-71
2023/10/03 12:05:21;;;;;;;0.50;0.50;;;16.90;99.90;;;;;;5091415;28;20283;-72
2023/10/03 12:07:51;;;;;;;0.60;0.60;;;17.10;99.90;;;;;;5091215;28;20190;-71
2023/10/03 12:10:18;;;;;;;0.40;0.40;;;16.80;99.90;;;;;;5091943;28;20768;-71
2023/10/03 12:12:45;;;;;;;0.40;0.40;;;16.90;99.90;;;;;;5111053;28;20194;-73
2023/10/03 12:15:14;;;;;;;0.40;0.40;;;16.90;99.90;;;;;;5111486;28;20209;-72
2023/10/03 12:17:44;;;;;;;0.30;0.30;;;17.10;99.90;;;;;;5110877;28;20280;-73
2023/10/03 12:20:12;;;;;;;0.73;0.73;;;17.00;99.90;;;;;;5111261;28;20459;-73
2023/10/03 12:22:50;;;;;;;0.57;0.57;;;17.00;99.90;;;;;;5111037;28;21112;-74
2023/10/03 12:25:18;;;;;;;4.15;1.38;;;16.60;99.90;;;;;;5110270;28;20256;-72
2023/10/03 12:27:44;;;;;;;0.35;0.35;;;16.30;99.90;;;;;;5109972;28;20270;-71
2023/10/03 12:30:12;;;;;;;0.40;0.40;;;16.20;99.90;;;;;;5111148;28;20198;-71
2023/10/03 12:32:41;;;;;;;0.50;0.50;;;16.10;99.90;;;;;;5110903;28;20210;-73
2023/10/03 12:35:08;;;;;;;2.63;1.05;;;15.90;99.90;;;;;;5111110;28;20187;-72
2023/10/03 12:37:34;;;;;;;0.38;0.38;;;16.10;99.90;;;;;;5092441;28;20200;-71
2023/10/03 12:40:08;;;;;;;0.40;0.40;;;16.20;99.90;;;;;;5111207;28;20195;-74
2023/10/03 12:42:40;;;;;;;0.52;0.50;;;16.60;99.90;;;;;;5110576;28;20209;-72
2023/10/03 12:45:20;;;;;;;0.38;0.35;;;16.90;99.90;;;;;;5092593;28;20203;-73
2023/10/03 12:47:47;;;;;;;0.50;0.50;;;17.20;99.90;;;;;;5110683;28;20666;-73
2023/10/03 12:50:23;;;;;;;0.38;0.38;;;16.70;99.90;;;;;;5110963;28;20616;-73
2023/10/03 12:52:56;;;;;;;0.30;0.30;;;16.30;99.90;;;;;;5120608;27;20241;-73
2023/10/03 12:55:26;;;;;;;0.35;0.35;;;16.00;99.90;;;;;;5130564;27;20191;-72
2023/10/03 12:57:55;;;;;;;0.40;0.40;;;15.60;99.90;;;;;;5131371;27;20273;-74
2023/10/03 13:00:23;;;;;;;0.50;0.50;;;15.40;99.90;;;;;;5130843;27;20215;-73
2023/10/03 13:02:50;;;;;;;0.40;0.40;;;15.00;99.90;;;;;;5129536;27;20309;-73
2023/10/03 13:05:18;;;;;;;0.40;0.40;;;14.70;99.90;;;;;;5115421;27;20200;-73
2023/10/03 13:07:48;;;;;;;0.65;0.65;;;14.60;99.90;;;;;;5110678;28;20192;-69
2023/10/03 13:10:18;;;;;;;0.40;0.40;;;14.50;99.90;;;;;;5110188;28;20192;-70